Time;durP1;ratioP1;P1;durP2;ratioP2;P2;SDS_P1;SDS_P2;PMS_P1;PMS_P2;Temp;Humidity;BMP_temperature;BMP_pressure;BME280_temperature;BME280_humidity;BME280_pressure;Samples;Min_cycle;Max_cycle;Signal;HPM_P1;HPM_P2
2021/01/26 00:00:34;;;;;;;20.08;13.48;;;;;;;4.21;83.62;99253.41;5058279;28;20029;-75
2021/01/26 00:03:40;;;;;;;21.00;13.27;;;;;;;4.12;83.83;99249.31;5052077;28;20048;-75
2021/01/26 00:06:22;;;;;;;22.38;13.13;;;;;;;4.00;83.86;99249.50;5051949;28;20111;-75
2021/01/26 00:12:11;;;;;;;14.90;9.30;;;;;;;3.83;84.62;99227.94;5052390;28;20043;-75
2021/01/26 00:17:59;;;;;;;11.13;8.20;;;;;;;4.01;84.15;99233.56;5052105;28;20094;-75
2021/01/26 00:20:44;;;;;;;14.63;9.95;;;;;;;3.92;84.77;99240.41;5051697;28;20454;-76
2021/01/26 00:26:21;;;;;;;16.02;8.68;;;;;;;4.16;84.64;99255.97;5052158;28;20538;-75
2021/01/26 00:32:02;;;;;;;13.55;7.95;;;;;;;4.32;83.06;99251.56;5051187;28;20052;-75
2021/01/26 00:34:55;;;;;;;12.00;8.07;;;;;;;4.27;84.19;99248.28;5033661;28;20033;-75
2021/01/26 00:37:20;;;;;;;11.93;8.10;;;;;;;4.28;84.16;99238.19;5051540;28;20076;-75
2021/01/26 00:39:51;;;;;;;13.05;7.65;;;;;;;4.06;84.63;99228.50;5034114;28;20052;-75
2021/01/26 00:42:18;;;;;;;16.00;8.93;;;;;;;4.01;84.66;99184.97;5033939;28;20415;-75
2021/01/26 00:45:23;;;;;;;13.38;8.15;;;;;;;4.27;84.95;99223.97;5033620;28;20027;-75
2021/01/26 00:48:00;;;;;;;12.85;7.50;;;;;;;4.33;83.68;99216.34;5051472;28;20494;-75
2021/01/26 00:53:54;;;;;;;12.00;7.63;;;;;;;4.28;83.43;99194.59;5051522;28;20471;-74
2021/01/26 00:56:21;;;;;;;12.32;8.00;;;;;;;4.41;83.03;99168.41;5051544;28;20086;-75
2021/01/26 00:58:48;;;;;;;14.50;7.93;;;;;;;4.54;83.91;99207.59;5051521;28;20045;-73
2021/01/26 01:01:22;;;;;;;13.07;8.40;;;;;;;4.64;82.83;99214.16;5033477;28;20021;-74
2021/01/26 01:03:51;;;;;;;12.70;8.30;;;;;;;4.76;82.34;99208.06;5033554;28;20033;-74
2021/01/26 01:06:35;;;;;;;11.30;7.78;;;;;;;4.58;84.42;99208.38;5033654;28;20036;-73
2021/01/26 01:09:04;;;;;;;11.52;7.90;;;;;;;4.68;83.84;99209.88;5051221;28;20033;-74
2021/01/26 01:11:33;;;;;;;14.07;9.43;;;;;;;4.51;84.42;99214.38;5034034;28;20032;-75
2021/01/26 01:14:04;;;;;;;14.82;9.88;;;;;;;4.52;84.18;99198.41;5055358;28;20029;-74
2021/01/26 01:16:40;;;;;;;14.60;9.88;;;;;;;4.40;84.40;99186.88;5055026;28;20120;-75
2021/01/26 01:19:07;;;;;;;14.75;9.80;;;;;;;4.21;84.69;99198.91;5057020;28;20071;-75
2021/01/26 01:21:46;;;;;;;15.88;9.88;;;;;;;4.30;85.09;99182.81;5055080;28;20440;-75
2021/01/26 01:24:23;;;;;;;16.40;10.32;;;;;;;4.31;85.65;99187.03;5054892;28;20021;-75
2021/01/26 01:27:21;;;;;;;14.95;10.18;;;;;;;4.55;85.12;99186.63;5054981;28;20123;-74
2021/01/26 01:29:47;;;;;;;14.63;9.75;;;;;;;4.46;84.65;99201.06;5054798;28;20044;-75
2021/01/26 01:32:12;;;;;;;14.48;9.18;;;;;;;4.68;84.39;99192.25;5054402;28;20056;-75
2021/01/26 01:34:44;;;;;;;13.07;9.05;;;;;;;4.45;84.23;99176.72;5054712;28;20025;-76
2021/01/26 01:37:24;;;;;;;14.20;8.77;;;;;;;4.60;84.76;99178.97;5037036;28;20025;-75
2021/01/26 01:39:51;;;;;;;13.00;8.15;;;;;;;4.76;82.87;99177.84;5054585;28;20033;-75
2021/01/26 01:42:23;;;;;;;11.52;7.78;;;;;;;4.76;84.11;99162.75;5055011;28;20104;-75
2021/01/26 01:45:09;;;;;;;;;;;;;;;4.75;83.50;99167.00;5037086;28;20033;-75
2021/01/26 01:47:44;;;;;;;11.50;7.63;;;;;;;4.71;83.55;99164.53;5036618;28;20423;-75
2021/01/26 01:50:17;;;;;;;11.52;7.50;;;;;;;4.36;84.26;99120.69;5036810;28;20120;-75
2021/01/26 01:53:01;;;;;;;11.27;7.15;;;;;;;4.50;83.90;99128.00;5054312;28;20025;-75
2021/01/26 01:55:37;;;;;;;9.82;6.90;;;;;;;4.37;85.23;99139.13;5036598;28;20025;-75
2021/01/26 01:58:16;;;;;;;13.15;7.68;;;;;;;4.69;83.59;99126.81;5036653;28;20033;-75
2021/01/26 02:00:48;;;;;;;13.88;7.68;;;;;;;4.60;84.79;99149.63;5054437;28;20041;-74
2021/01/26 02:03:33;;;;;;;12.80;7.60;;;;;;;4.40;83.94;99111.38;5036258;28;20031;-74
2021/01/26 02:06:05;;;;;;;14.20;8.73;;;;;;;4.04;85.01;99112.84;5054166;28;20031;-74
2021/01/26 02:08:41;;;;;;;14.00;8.30;;;;;;;4.40;85.34;99137.38;5053949;28;20099;-75
2021/01/26 02:11:13;;;;;;;12.63;7.97;;;;;;;4.09;85.57;99130.38;5036372;28;20498;-74
2021/01/26 02:13:54;;;;;;;13.60;8.35;;;;;;;4.53;84.15;99153.13;5053956;28;20078;-74
2021/01/26 02:16:49;;;;;;;12.07;7.68;;;;;;;4.34;84.94;99140.00;5053869;28;20029;-75
2021/01/26 02:19:55;;;;;;;11.13;7.50;;;;;;;4.24;84.90;99128.44;5036260;28;20056;-74
2021/01/26 02:25:51;;;;;;;12.27;7.90;;;;;;;4.15;85.95;99105.13;5053980;28;20091;-75
2021/01/26 02:28:35;;;;;;;13.77;8.68;;;;;;;4.01;85.75;99099.50;5034847;28;20470;-75
2021/01/26 02:31:16;;;;;;;13.07;8.25;;;;;;;4.36;83.96;99103.06;5034205;28;20127;-76
2021/01/26 02:33:51;;;;;;;11.65;7.68;;;;;;;4.00;85.47;99100.34;5034819;28;20514;-76
2021/01/26 02:36:54;;;;;;;11.57;8.25;;;;;;;4.25;84.12;99104.13;5053322;28;20029;-75
2021/01/26 02:39:37;;;;;;;11.85;7.97;;;;;;;3.81;85.29;99094.78;5053712;28;20120;-76
2021/01/26 02:42:17;;;;;;;13.98;8.35;;;;;;;3.77;86.72;99082.28;5036872;28;20035;-75
2021/01/26 02:45:10;;;;;;;14.45;9.27;;;;;;;3.97;86.42;99082.78;5035576;28;20033;-75
2021/01/26 02:47:52;;;;;;;12.15;8.27;;;;;;;3.84;86.93;99071.28;5035418;28;20056;-75
2021/01/26 02:50:48;;;;;;;13.20;9.00;;;;;;;3.64;87.49;99083.31;5035521;28;20033;-76
2021/01/26 02:53:44;;;;;;;13.35;8.50;;;;;;;3.80;86.32;99049.56;5035576;28;20109;-75
2021/01/26 02:56:29;;;;;;;14.38;8.40;;;;;;;3.90;86.04;99073.69;5053165;28;20533;-76
2021/01/26 02:59:09;;;;;;;12.45;7.80;;;;;;;3.92;85.92;99049.38;5053004;28;20421;-75
2021/01/26 03:01:46;;;;;;;12.98;8.00;;;;;;;4.09;85.44;99073.38;5052796;28;20060;-75
2021/01/26 03:04:25;;;;;;;12.20;7.68;;;;;;;4.38;84.20;99085.44;5034853;28;20033;-75
2021/01/26 03:06:53;;;;;;;12.05;7.43;;;;;;;4.05;85.28;99088.53;5035342;28;20415;-75
2021/01/26 03:09:29;;;;;;;11.07;7.15;;;;;;;3.92;84.76;99050.19;5053020;28;20032;-74
2021/01/26 03:12:07;;;;;;;10.98;6.88;;;;;;;4.24;84.21;99072.25;5052716;28;20025;-75
2021/01/26 03:14:56;;;;;;;10.50;7.03;;;;;;;4.49;83.85;99063.44;5052708;28;20041;-75
2021/01/26 03:17:25;;;;;;;12.02;7.65;;;;;;;4.34;84.77;99072.09;5052474;28;20059;-75
2021/01/26 03:19:52;;;;;;;10.57;7.15;;;;;;;4.42;84.63;99064.41;5052750;28;20080;-75
2021/01/26 03:22:23;;;;;;;9.40;6.63;;;;;;;4.14;84.41;99043.13;5052609;28;20025;-75
2021/01/26 03:24:51;;;;;;;12.18;7.10;;;;;;;4.72;89.42;99060.47;5052799;28;20029;-74
2021/01/26 03:27:23;;;;;;;13.10;7.60;;;;;;;5.50;88.89;99020.19;5052698;28;20024;-74
2021/01/26 03:29:53;;;;;;;14.13;8.48;;;;;;;4.16;83.32;99004.50;5034450;28;20063;-76
2021/01/26 03:32:23;;;;;;;12.05;8.20;;;;;;;3.95;85.40;99039.25;5034500;28;20080;-75
2021/01/26 03:34:49;;;;;;;12.45;7.72;;;;;;;3.81;86.33;99026.09;5051931;28;20560;-75
2021/01/26 03:37:14;;;;;;;11.82;7.53;;;;;;;4.14;84.48;99048.97;5052059;28;20028;-74
2021/01/26 03:39:40;;;;;;;11.43;7.78;;;;;;;3.96;86.08;99049.28;5052322;28;20040;-75
2021/01/26 03:42:06;;;;;;;12.68;7.68;;;;;;;3.80;85.85;99052.09;5034379;28;20036;-75
2021/01/26 03:44:33;;;;;;;13.90;8.27;;;;;;;3.93;85.39;99049.34;5052076;28;20493;-75
2021/01/26 03:47:21;;;;;;;12.85;8.35;;;;;;;3.77;86.62;99065.53;5052362;28;20159;-75
2021/01/26 03:50:02;;;;;;;11.23;7.72;;;;;;;3.72;86.84;99066.44;5039679;28;20033;-74
2021/01/26 03:52:36;;;;;;;13.63;8.00;;;;;;;3.74;86.21;99067.25;5051917;28;20068;-74
2021/01/26 03:55:04;;;;;;;15.25;9.23;;;;;;;3.47;86.49;99058.44;5051944;28;20083;-75
2021/01/26 03:57:43;;;;;;;14.88;8.77;;;;;;;3.63;86.03;99062.38;5052229;28;20029;-74
2021/01/26 04:00:41;;;;;;;14.35;8.88;;;;;;;3.69;86.56;99064.81;5051826;28;20033;-75
2021/01/26 04:03:18;;;;;;;12.75;7.85;;;;;;;3.57;86.79;99067.50;5052105;28;20448;-74
2021/01/26 04:06:11;;;;;;;14.23;8.48;;;;;;;3.77;87.17;99060.50;5053733;28;20029;-74
2021/01/26 04:08:37;;;;;;;12.65;7.90;;;;;;;4.13;84.61;99074.97;5033929;28;20036;-75
2021/01/26 04:11:15;;;;;;;12.00;7.95;;;;;;;3.66;85.97;99077.44;5051822;28;20029;-75
2021/01/26 04:13:53;;;;;;;12.07;8.57;;;;;;;3.51;86.77;99075.13;5051732;28;20472;-74
2021/01/26 04:16:22;;;;;;;14.10;8.15;;;;;;;3.76;85.78;99076.44;5051377;28;20104;-75
2021/01/26 04:18:50;;;;;;;14.45;8.93;;;;;;;4.05;85.05;99071.78;5051597;28;20021;-74
2021/01/26 04:21:16;;;;;;;16.15;9.82;;;;;;;4.13;85.17;99074.16;5033745;28;20087;-74
2021/01/26 04:23:42;;;;;;;22.45;12.10;;;;;;;4.12;84.99;99082.56;5051697;28;20036;-75
2021/01/26 04:26:17;;;;;;;28.00;14.90;;;;;;;3.88;86.19;99081.25;5051711;28;20021;-75
2021/01/26 04:28:45;;;;;;;24.15;13.68;;;;;;;3.81;86.33;99076.34;5034003;28;20151;-76
2021/01/26 04:31:12;;;;;;;27.63;14.57;;;;;;;3.66;87.07;99074.06;5051615;28;20028;-75
2021/01/26 04:33:39;;;;;;;85.75;45.80;;;;;;;3.82;85.71;99075.50;5033332;28;20122;-75
2021/01/26 04:36:04;;;;;;;52.10;31.30;;;;;;;3.86;85.77;99079.63;5051529;28;20021;-75
2021/01/26 04:38:30;;;;;;;33.70;21.15;;;;;;;4.02;85.43;99081.84;5033496;28;20029;-75
2021/01/26 04:41:04;;;;;;;31.40;19.48;;;;;;;3.93;84.75;99086.22;5033811;28;20036;-75
2021/01/26 04:44:07;;;;;;;32.38;20.58;;;;;;;4.09;85.26;99077.56;5051373;28;20544;-75
2021/01/26 04:46:36;;;;;;;29.38;18.73;;;;;;;3.65;85.35;99074.91;5051963;28;20486;-75
2021/01/26 04:49:14;;;;;;;29.20;16.90;;;;;;;3.83;85.92;99082.19;5055121;28;20029;-76
2021/01/26 04:52:22;;;;;;;24.30;16.35;;;;;;;3.64;87.28;99078.28;5034983;28;20048;-76
2021/01/26 04:55:42;;;;;;;25.85;16.67;;;;;;;3.68;85.83;99074.88;5037547;28;20036;-75
2021/01/26 04:58:49;;;;;;;24.02;15.77;;;;;;;3.40;86.19;99065.25;5037901;28;20039;-76
2021/01/26 05:01:30;;;;;;;26.33;15.55;;;;;;;3.51;87.02;99055.03;5050697;28;20440;-74
2021/01/26 05:04:24;;;;;;;23.77;14.88;;;;;;;3.46;87.08;99069.34;5045238;28;20028;-75
2021/01/26 05:07:11;;;;;;;27.15;17.25;;;;;;;3.38;86.72;99076.16;5053360;28;20531;-75
2021/01/26 05:13:07;;;;;;;23.08;14.20;;;;;;;3.45;86.92;99093.63;5055587;28;20036;-76
2021/01/26 05:15:47;;;;;;;23.42;13.07;;;;;;;3.26;87.07;99099.75;5053339;28;20025;-76
2021/01/26 05:18:38;;;;;;;23.45;12.20;;;;;;;3.23;86.84;99093.94;5053542;28;20028;-75
2021/01/26 05:21:14;;;;;;;21.80;12.25;;;;;;;2.94;86.87;99078.41;5053315;28;20033;-74
2021/01/26 05:23:45;;;;;;;20.52;12.80;;;;;;;2.96;88.33;99097.63;5055282;28;20017;-74
2021/01/26 05:26:22;;;;;;;20.85;13.18;;;;;;;3.03;87.29;99083.34;5057616;28;20040;-75
2021/01/26 05:28:50;;;;;;;23.27;14.63;;;;;;;3.32;85.96;99079.59;5053047;28;20125;-79
2021/01/26 05:31:26;;;;;;;25.08;14.25;;;;;;;3.45;86.36;99103.69;5053534;28;20032;-77
2021/01/26 05:34:02;;;;;;;20.75;12.57;;;;;;;3.41;86.68;99087.00;5053667;28;20598;-79
2021/01/26 05:36:31;;;;;;;17.90;10.85;;;;;;;3.58;86.87;99099.31;5017586;28;20093;-80
2021/01/26 05:39:18;;;;;;;16.30;10.65;;;;;;;3.81;87.39;99076.34;5017847;28;20033;-80
2021/01/26 05:42:13;;;;;;;16.67;9.60;;;;;;;3.75;86.46;99104.09;5017641;28;20029;-80
2021/01/26 05:48:08;;;;;;;13.73;7.40;;;;;;;4.10;84.89;99090.09;5035132;28;20170;-81
2021/01/26 05:50:43;;;;;;;20.77;12.48;;;;;;;4.11;85.72;99098.47;5034983;28;20061;-83
2021/01/26 05:53:19;;;;;;;23.48;13.88;;;;;;;4.18;85.11;99102.56;5033984;28;20112;-79
2021/01/26 05:56:20;;;;;;;25.95;15.95;;;;;;;4.44;84.07;99115.50;5017198;28;20048;-80
2021/01/26 06:02:21;;;;;;;45.33;30.10;;;;;;;4.53;83.51;99110.34;5035121;28;20045;-79
2021/01/26 06:08:14;;;;;;;31.60;21.63;;;;;;;4.37;83.08;99098.88;5035225;28;20048;-78
2021/01/26 06:10:44;;;;;;;25.73;17.38;;;;;;;4.39;83.81;99092.13;5034356;28;20029;-78
2021/01/26 06:13:12;;;;;;;27.13;17.33;;;;;;;4.36;83.32;99087.16;5017191;28;20037;-79
2021/01/26 06:15:41;;;;;;;27.67;17.77;;;;;;;4.10;83.69;99086.78;5033587;28;20056;-78
2021/01/26 06:18:18;;;;;;;28.98;16.70;;;;;;;3.91;84.37;99077.88;5033372;28;20025;-78
2021/01/26 06:21:19;;;;;;;25.90;15.02;;;;;;;4.00;84.37;99110.41;5033377;28;20406;-78
2021/01/26 06:27:22;;;;;;;30.37;16.73;;;;;;;3.62;85.33;99115.19;5035080;28;20524;-79
2021/01/26 06:30:29;;;;;;;26.23;14.48;;;;;;;3.24;86.20;99116.53;5034273;28;20087;-78
2021/01/26 06:36:31;;;;;;;24.55;12.70;;;;;;;3.80;84.54;99119.94;5034477;28;20094;-79
2021/01/26 06:39:42;;;;;;;24.95;13.30;;;;;;;3.74;84.48;99109.97;5032928;28;20032;-79
2021/01/26 06:42:35;;;;;;;26.38;13.30;;;;;;;3.48;85.89;99115.38;5045381;28;20018;-80
2021/01/26 06:48:47;;;;;;;32.33;16.60;;;;;;;3.32;86.10;99108.88;5034510;28;20040;-80
2021/01/26 06:51:40;;;;;;;28.27;16.13;;;;;;;3.74;85.38;99098.25;5032603;28;20064;-80
2021/01/26 06:54:41;;;;;;;27.45;16.33;;;;;;;3.82;85.21;99088.06;5032660;28;20092;-79
2021/01/26 07:00:41;;;;;;;18.07;10.50;;;;;;;3.73;85.65;99068.09;5033507;28;20446;-79
2021/01/26 07:03:44;;;;;;;27.73;16.60;;;;;;;4.01;85.11;99084.41;5032249;28;20034;-79
2021/01/26 07:06:56;;;;;;;22.88;14.65;;;;;;;4.33;83.84;99082.19;5032187;28;20164;-79
2021/01/26 07:12:55;;;;;;;29.83;16.85;;;;;;;4.51;83.82;99098.63;5033927;28;20099;-80
2021/01/26 07:15:59;;;;;;;30.48;17.35;;;;;;;4.87;82.63;99078.63;5032341;28;20030;-81
2021/01/26 07:21:58;;;;;;;34.58;18.48;;;;;;;4.90;81.37;99090.31;5033318;28;20439;-81
2021/01/26 07:24:51;;;;;;;36.47;22.40;;;;;;;5.05;81.71;99080.78;5015511;28;20033;-79
2021/01/26 07:30:27;;;;;;;29.90;17.85;;;;;;;4.80;82.27;99098.91;5032970;28;19975;-78
2021/01/26 07:33:42;;;;;;;25.58;16.20;;;;;;;4.98;83.35;99104.44;5014855;28;20046;-78
2021/01/26 07:40:02;;;;;;;18.45;11.32;;;;;;;4.86;81.89;99066.06;5032863;28;20044;-77
2021/01/26 07:43:12;;;;;;;22.52;13.60;;;;;;;4.49;82.55;99038.28;4992830;28;20033;-78
2021/01/26 07:45:49;;;;;;;26.48;15.88;;;;;;;4.93;82.98;99092.81;5015248;28;20032;-77
2021/01/26 07:48:38;;;;;;;37.10;19.88;;;;;;;5.06;82.41;99111.81;5032376;28;20026;-78
2021/01/26 07:51:37;;;;;;;45.10;25.00;;;;;;;5.05;82.98;99103.44;5032526;28;20033;-78
2021/01/26 07:57:30;;;;;;;22.20;13.65;;;;;;;5.09;81.41;99063.94;5032852;28;20060;-78
2021/01/26 08:00:28;;;;;;;30.77;18.42;;;;;;;5.62;82.28;99098.03;5031453;28;20069;-78
2021/01/26 08:02:56;;;;;;;32.67;19.75;;;;;;;5.70;81.52;99083.56;5031620;28;20029;-77
2021/01/26 08:05:47;;;;;;;27.45;17.45;;;;;;;5.74;81.22;99086.00;5048516;28;20025;-79
2021/01/26 08:08:39;;;;;;;30.60;16.90;;;;;;;6.00;81.94;99078.66;5032433;28;20029;-79
2021/01/26 08:14:33;;;;;;;30.38;17.42;;;;;;;6.09;80.30;99070.88;5032513;28;20040;-79
2021/01/26 08:20:20;;;;;;;15.85;10.25;;;;;;;6.36;82.52;99089.53;5032063;28;20048;-78
2021/01/26 08:23:10;;;;;;;21.13;11.85;;;;;;;6.28;82.79;99088.09;5030444;28;20022;-78
2021/01/26 08:25:53;;;;;;;23.35;13.43;;;;;;;6.22;81.41;99043.63;5031030;28;20029;-79
2021/01/26 08:38:52;;;;;;;23.13;14.97;;;;;;;6.60;80.02;99062.81;5032080;28;20048;-78
2021/01/26 08:44:39;;;;;;;26.67;16.53;;;;;;;6.73;78.33;99049.84;5031918;28;20071;-77
2021/01/26 08:47:51;;;;;;;31.40;16.85;;;;;;;6.74;79.02;99046.44;5014390;28;20276;-79
2021/01/26 08:53:35;;;;;;;24.00;13.80;;;;;;;6.60;81.44;99042.63;5031922;28;19963;-79
2021/01/26 08:56:27;;;;;;;25.50;14.10;;;;;;;6.69;80.01;99035.63;5014364;28;20112;-79
2021/01/26 08:59:09;;;;;;;;;;;;;;;6.86;80.93;99040.19;5031193;28;20087;-78
2021/01/26 09:02:05;;;;;;;21.58;12.40;;;;;;;6.83;80.55;99045.34;5047211;28;19913;-78
2021/01/26 09:05:18;;;;;;;14.85;10.05;;;;;;;7.06;81.49;99058.16;5031545;28;20037;-81
2021/01/26 09:08:32;;;;;;;14.90;9.30;;;;;;;7.08;79.41;99053.03;5031743;28;20030;-82
2021/01/26 09:14:45;;;;;;;22.10;10.35;;;;;;;7.37;78.46;99065.69;5031887;28;20450;-80
2021/01/26 09:17:35;;;;;;;23.38;12.30;;;;;;;7.29;77.76;99019.59;5031422;28;20545;-81
2021/01/26 09:24:12;;;;;;;17.20;9.55;;;;;;;7.48;77.90;99063.63;5031929;28;20056;-81
2021/01/26 09:26:38;;;;;;;29.00;15.27;;;;;;;7.41;78.36;99059.63;5043927;28;20036;-81
2021/01/26 09:32:25;;;;;;;37.33;19.03;;;;;;;7.28;77.79;99050.78;5031909;28;20075;-80
2021/01/26 09:35:23;;;;;;;32.58;15.93;;;;;;;7.31;77.87;99063.31;5033981;28;20116;-79
2021/01/26 09:38:43;;;;;;;38.65;20.05;;;;;;;7.32;79.89;99054.84;5035080;28;20033;-79
2021/01/26 09:41:31;;;;;;;20.23;13.40;;;;;;;7.24;82.06;99046.69;5033931;28;20040;-79
2021/01/26 09:44:19;;;;;;;19.45;11.43;;;;;;;7.34;81.73;99043.00;5034815;28;20037;-78
2021/01/26 09:47:11;;;;;;;27.98;15.02;;;;;;;7.31;81.77;99050.69;5017203;28;20032;-79
2021/01/26 09:49:42;;;;;;;27.13;16.50;;;;;;;7.43;82.28;99047.75;5033729;28;20075;-79
2021/01/26 09:52:16;;;;;;;20.60;12.67;;;;;;;7.53;81.60;99033.97;5034787;28;20024;-79
2021/01/26 09:58:04;;;;;;;56.58;27.38;;;;;;;7.66;80.60;99037.78;5035259;28;20132;-79
2021/01/26 10:03:57;;;;;;;41.40;22.63;;;;;;;7.90;80.78;99032.75;5034924;28;20099;-80
2021/01/26 10:09:30;;;;;;;23.30;12.15;;;;;;;8.41;83.28;99037.84;5034480;28;20076;-81
2021/01/26 10:15:34;;;;;;;29.90;18.60;;;;;;;7.88;81.34;99038.75;5034329;28;20096;-79
2021/01/26 10:18:10;;;;;;;31.70;17.48;;;;;;;7.86;81.64;99041.31;5034571;28;20036;-84
2021/01/26 10:21:21;;;;;;;34.63;19.02;;;;;;;7.94;82.57;99030.97;5034227;28;20037;-82
2021/01/26 10:23:57;;;;;;;26.48;15.30;;;;;;;7.86;83.21;99036.25;5034286;28;20029;-81
2021/01/26 10:26:42;;;;;;;32.42;18.70;;;;;;;7.74;83.48;99034.13;5034146;28;20032;-83
2021/01/26 10:29:23;;;;;;;31.50;18.00;;;;;;;7.81;83.57;99019.59;5034301;28;20025;-80
2021/01/26 10:32:10;;;;;;;36.15;19.27;;;;;;;7.77;82.83;99013.81;5034307;28;20068;-79
2021/01/26 10:34:49;;;;;;;32.10;18.33;;;;;;;7.72;82.91;99014.84;5015866;28;20081;-79
2021/01/26 10:37:23;;;;;;;23.80;13.73;;;;;;;7.73;82.82;99024.91;5014171;28;20029;-80
2021/01/26 10:40:16;;;;;;;30.85;16.75;;;;;;;8.06;83.35;99017.09;5033770;28;20414;-78
2021/01/26 10:43:37;;;;;;;30.20;17.60;;;;;;;8.43;84.01;99018.34;5033909;28;20112;-75
2021/01/26 10:46:09;;;;;;;30.13;17.60;;;;;;;8.02;82.34;99011.31;5032076;28;20465;-78
2021/01/26 10:48:43;;;;;;;39.67;24.42;;;;;;;7.99;83.33;99008.88;5026513;28;20029;-77
2021/01/26 10:51:28;;;;;;;29.92;19.40;;;;;;;8.06;83.83;99005.22;5033521;28;20030;-78
2021/01/26 10:54:15;;;;;;;30.27;19.67;;;;;;;8.10;84.41;99004.25;5015930;28;20037;-77
2021/01/26 11:00:15;;;;;;;34.35;19.63;;;;;;;8.22;83.68;99008.91;5033130;28;20041;-77
2021/01/26 11:03:11;;;;;;;28.23;17.33;;;;;;;8.31;83.86;99010.34;5015399;28;20033;-77
2021/01/26 11:06:13;;;;;;;23.67;15.30;;;;;;;8.31;82.88;99006.09;5033315;28;20033;-78
2021/01/26 11:08:43;;;;;;;28.40;17.30;;;;;;;8.21;83.23;98988.72;5026692;28;20037;-77
2021/01/26 11:11:29;;;;;;;45.40;31.00;;;;;;;8.29;82.77;99009.56;5015744;28;20036;-77
2021/01/26 11:14:20;;;;;;;39.92;26.52;;;;;;;8.40;82.96;99004.94;5033253;28;20017;-77
2021/01/26 11:20:08;;;;;;;30.63;18.83;;;;;;;8.45;82.74;98998.84;5033177;28;20087;-77
2021/01/26 11:23:11;;;;;;;31.02;19.58;;;;;;;8.42;83.86;98990.53;5032875;28;20091;-77
2021/01/26 11:28:59;;;;;;;23.57;14.43;;;;;;;8.59;78.02;98971.34;5033354;28;20052;-77
2021/01/26 11:31:30;;;;;;;28.52;19.02;;;;;;;8.67;77.99;98969.34;5015396;28;20021;-78
2021/01/26 11:33:55;;;;;;;36.20;19.98;;;;;;;8.57;79.77;98973.09;5023565;28;20525;-78
2021/01/26 11:36:36;;;;;;;25.88;14.15;;;;;;;8.67;73.59;98953.31;4995651;28;20045;-78
2021/01/26 11:39:06;;;;;;;33.33;19.40;;;;;;;8.73;74.46;98966.56;4995438;28;20156;-78
2021/01/26 11:41:34;;;;;;;33.17;19.27;;;;;;;8.71;75.74;98975.13;4995671;28;20280;-79
2021/01/26 11:44:05;;;;;;;17.38;11.68;;;;;;;8.80;73.06;98969.72;4995480;28;20026;-78
2021/01/26 11:46:40;;;;;;;20.00;12.40;;;;;;;8.64;76.48;98950.88;4995481;28;20026;-78
2021/01/26 11:49:09;;;;;;;14.25;8.65;;;;;;;8.77;72.06;98967.31;4994962;28;20041;-78
2021/01/26 11:54:56;;;;;;;45.33;18.53;;;;;;;8.56;71.45;98956.22;5012989;28;20136;-79
2021/01/26 11:57:23;;;;;;;18.38;9.15;;;;;;;8.59;71.61;98981.47;4994425;28;20550;-78
2021/01/26 12:03:50;;;;;;;10.73;6.22;;;;;;;8.47;72.66;98997.09;5012814;28;20442;-78
2021/01/26 12:06:34;;;;;;;8.00;4.75;;;;;;;8.41;73.62;98992.25;5012265;28;20099;-78
2021/01/26 12:09:03;;;;;;;9.35;4.60;;;;;;;8.14;74.03;98972.09;5007893;28;20462;-77
2021/01/26 12:11:30;;;;;;;8.70;4.72;;;;;;;8.08;72.82;98957.94;4994986;28;20030;-78
2021/01/26 12:14:04;;;;;;;9.25;5.78;;;;;;;8.05;73.71;98985.88;4995227;28;20487;-78
2021/01/26 12:19:52;;;;;;;10.53;6.67;;;;;;;7.96;73.01;98965.13;5012580;28;20041;-77
2021/01/26 12:25:41;;;;;;;13.15;7.97;;;;;;;7.82;73.84;98965.59;5012776;28;20556;-77
2021/01/26 12:28:11;;;;;;;12.98;7.93;;;;;;;7.78;75.17;98994.41;4994929;28;20117;-77
2021/01/26 12:31:01;;;;;;;12.35;8.73;;;;;;;7.63;76.33;98989.81;5012367;28;20030;-77
2021/01/26 12:33:27;;;;;;;13.05;8.25;;;;;;;7.39;76.26;98988.09;4999283;28;20141;-78
2021/01/26 12:35:52;;;;;;;14.13;8.68;;;;;;;7.33;77.16;98981.50;5031874;28;20100;-77
2021/01/26 12:41:40;;;;;;;14.03;8.87;;;;;;;7.44;76.75;98991.28;5032033;28;20037;-77
2021/01/26 12:44:53;;;;;;;12.95;8.80;;;;;;;7.56;75.48;98993.44;5030913;28;20037;-78
2021/01/26 12:47:19;;;;;;;15.45;10.73;;;;;;;7.49;74.90;98994.47;5030688;28;20029;-78
2021/01/26 12:50:23;;;;;;;16.17;9.70;;;;;;;7.50;76.98;98999.50;5030810;28;20090;-78
2021/01/26 12:53:01;;;;;;;25.17;15.18;;;;;;;7.29;76.48;98994.31;5031777;28;20501;-77
2021/01/26 12:55:39;;;;;;;16.08;10.23;;;;;;;7.00;76.43;98990.94;5030802;28;20136;-78
2021/01/26 12:58:08;;;;;;;17.02;11.35;;;;;;;6.98;77.07;98989.31;5031869;28;20137;-78
2021/01/26 13:01:27;;;;;;;14.95;10.30;;;;;;;6.95;78.58;98974.28;5031708;28;20076;-77
2021/01/26 13:07:17;;;;;;;15.65;8.82;;;;;;;6.82;77.10;98996.53;5031803;28;20425;-77
2021/01/26 13:10:00;;;;;;;14.30;9.38;;;;;;;6.94;77.06;99000.41;5034343;28;20021;-77
2021/01/26 13:12:40;;;;;;;16.15;9.85;;;;;;;6.82;76.40;98991.47;5035571;28;20025;-77
2021/01/26 13:18:27;;;;;;;9.77;6.90;;;;;;;6.45;75.93;98993.38;5035690;28;20093;-77
2021/01/26 13:24:15;;;;;;;10.73;6.05;;;;;;;6.16;76.23;98990.00;5035411;28;20103;-78
2021/01/26 13:27:09;;;;;;;14.10;8.10;;;;;;;6.20;75.08;98996.63;5034064;28;20041;-77
2021/01/26 13:29:37;;;;;;;9.00;5.95;;;;;;;6.04;75.97;99003.75;5035055;28;20036;-77
2021/01/26 13:38:52;;;;;;;6.68;3.92;;;;;;;5.94;75.29;98998.09;5035334;28;20060;-76
2021/01/26 13:41:22;;;;;;;12.10;7.93;;;;;;;5.71;74.00;98986.91;5034915;28;20514;-76
2021/01/26 13:43:48;;;;;;;11.88;6.68;;;;;;;5.74;76.70;99002.78;5035051;28;20123;-76
2021/01/26 13:46:50;;;;;;;6.10;4.43;;;;;;;5.61;76.69;99015.72;5017278;28;20447;-76
2021/01/26 13:52:20;;;;;;;6.10;4.20;;;;;;;5.48;77.00;99015.19;5034572;28;19959;-77
2021/01/26 13:55:40;;;;;;;6.63;4.55;;;;;;;5.39;78.90;99004.50;5033853;28;20017;-77
2021/01/26 13:58:13;;;;;;;7.30;4.57;;;;;;;5.32;76.95;98983.66;5035002;28;20037;-77
2021/01/26 14:01:14;;;;;;;3.42;2.85;;;;;;;5.39;75.75;99000.25;5033587;28;20482;-77
2021/01/26 14:03:40;;;;;;;7.80;4.75;;;;;;;5.52;75.37;98995.78;5033632;28;20521;-77
2021/01/26 14:06:32;;;;;;;7.57;3.95;;;;;;;5.41;76.82;99012.84;5034532;28;20097;-77
2021/01/26 14:09:21;;;;;;;7.70;4.57;;;;;;;5.09;78.12;99016.09;5034846;28;20029;-78
2021/01/26 14:11:51;;;;;;;5.38;3.50;;;;;;;4.87;78.36;99005.59;5034406;28;20521;-77
2021/01/26 14:14:24;;;;;;;11.70;8.05;;;;;;;4.72;78.09;98965.66;5034488;28;20026;-78
2021/01/26 14:16:51;;;;;;;13.55;6.00;;;;;;;4.82;78.60;99009.09;5033426;28;20060;-78
2021/01/26 14:19:19;;;;;;;6.50;3.40;;;;;;;4.71;77.30;99004.28;5033386;28;20033;-78
2021/01/26 14:21:54;;;;;;;8.15;4.75;;;;;;;4.54;78.53;98975.28;5034615;28;20112;-78
2021/01/26 14:24:19;;;;;;;4.40;3.25;;;;;;;4.79;77.56;99016.72;5033227;28;20096;-78
2021/01/26 14:26:45;;;;;;;3.38;2.45;;;;;;;4.71;77.61;99016.88;5034856;28;20454;-77
2021/01/26 14:29:13;;;;;;;3.33;2.33;;;;;;;4.42;78.51;98991.44;5036040;28;20096;-77
2021/01/26 14:35:18;;;;;;;5.13;3.08;;;;;;;4.33;80.22;98979.91;5034879;28;20076;-76
2021/01/26 14:38:30;;;;;;;4.00;3.00;;;;;;;4.48;78.98;99001.38;5034181;28;20109;-77
2021/01/26 14:41:09;;;;;;;4.47;2.60;;;;;;;4.43;78.68;98995.63;5034047;28;20029;-77
2021/01/26 14:46:58;;;;;;;3.30;2.13;;;;;;;4.38;79.44;99003.25;5034267;28;20056;-76
2021/01/26 14:49:24;;;;;;;4.68;2.65;;;;;;;4.39;78.66;99022.53;5016146;28;20076;-77
2021/01/26 14:55:13;;;;;;;4.63;2.53;;;;;;;4.26;79.50;99020.25;5049245;28;20048;-77
2021/01/26 14:57:46;;;;;;;3.55;1.98;;;;;;;4.22;78.84;99008.59;5034404;28;20525;-77
2021/01/26 15:00:16;;;;;;;4.63;2.97;;;;;;;4.24;78.85;99002.69;5033366;28;20522;-77
2021/01/26 15:03:00;;;;;;;3.75;2.70;;;;;;;4.22;78.95;99003.56;5033288;28;20030;-76
2021/01/26 15:06:14;;;;;;;3.33;1.85;;;;;;;4.34;78.25;99003.34;5015976;28;20063;-77
2021/01/26 15:12:01;;;;;;;13.30;8.52;;;;;;;4.03;78.08;98972.91;5033228;28;20060;-77
2021/01/26 15:14:57;;;;;;;10.95;8.38;;;;;;;4.22;78.57;98988.47;5033228;28;20089;-77
2021/01/26 15:17:25;;;;;;;6.97;2.95;;;;;;;4.03;77.75;98999.72;5015691;28;20068;-76
2021/01/26 15:20:29;;;;;;;4.47;2.65;;;;;;;4.03;78.20;98984.66;5033715;28;20545;-76
2021/01/26 15:22:56;;;;;;;2.25;1.60;;;;;;;3.77;77.94;98979.25;5015615;28;20060;-76